Time;durP1;ratioP1;P1;durP2;ratioP2;P2;SDS_P1;SDS_P2;PMS_P1;PMS_P2;Temp;Humidity;BMP_temperature;BMP_pressure;BME280_temperature;BME280_humidity;BME280_pressure;Samples;Min_cycle;Max_cycle;Signal;HPM_P1;HPM_P2
2022/03/15 00:02:01;;;;;;;;;;;6.90;99.90;;;5.65;65.14;96640.16;10496108;28;1865;-72
2022/03/15 00:07:16;;;;;;;;;;;6.80;99.90;;;5.65;65.35;96642.81;10512773;28;1815;-72
2022/03/15 00:12:19;;;;;;;;;;;6.80;99.90;;;5.62;65.74;96634.47;10513225;28;1788;-72
2022/03/15 00:17:23;;;;;;;;;;;6.70;99.90;;;5.63;66.15;96628.09;10492550;28;1971;-71
2022/03/15 00:22:26;;;;;;;;;;;6.70;99.90;;;5.58;66.26;96626.09;10477180;28;1875;-71
2022/03/15 00:27:30;;;;;;;;;;;6.60;99.90;;;5.60;66.66;96628.56;10525389;28;1916;-73
2022/03/15 00:32:33;;;;;;;;;;;6.60;99.90;;;5.52;67.73;96620.81;10510161;28;1752;-73
2022/03/15 00:37:37;;;;;;;;;;;6.60;99.90;;;5.54;67.92;96626.75;10517602;28;1914;-72
2022/03/15 00:42:41;;;;;;;;;;;6.60;99.90;;;5.52;68.40;96623.47;10508424;28;1806;-72
2022/03/15 00:47:44;;;;;;;;;;;6.60;99.90;;;5.52;68.98;96632.28;10521118;28;1848;-72
2022/03/15 00:52:47;;;;;;;;;;;6.60;99.90;;;5.62;69.08;96631.81;10502080;28;1817;-72
2022/03/15 00:57:50;;;;;;;;;;;6.60;99.90;;;5.75;68.90;96618.31;10501396;28;1981;-71
2022/03/15 01:02:54;;;;;;;;;;;6.70;99.90;;;5.70;69.07;96604.81;10504794;28;1786;-72
2022/03/15 01:07:57;;;;;;;;;;;6.80;99.90;;;5.63;69.44;96614.75;10523648;28;1925;-71
2022/03/15 01:13:00;;;;;;;;;;;6.70;99.90;;;5.64;70.46;96614.53;10499413;28;1804;-73
2022/03/15 01:18:04;;;;;;;;;;;6.70;99.90;;;5.59;70.83;96613.56;10521048;28;1967;-73
2022/03/15 01:23:07;;;;;;;;;;;6.60;99.90;;;5.55;71.31;96612.38;10508864;28;1762;-72
2022/03/15 01:28:10;;;;;;;;;;;6.70;99.90;;;5.56;71.95;96611.34;10499287;28;1823;-72
2022/03/15 01:33:14;;;;;;;;;;;6.60;99.90;;;5.42;72.37;96600.81;10510438;28;1589;-72
2022/03/15 01:38:18;;;;;;;;;;;6.50;99.90;;;5.43;72.74;96599.78;10506725;28;2046;-71
2022/03/15 01:43:21;;;;;;;;;;;6.50;99.90;;;5.44;73.35;96592.59;10491963;28;2253;-72
2022/03/15 01:48:24;;;;;;;;;;;6.50;99.90;;;5.53;73.12;96590.44;10497442;28;1864;-72
2022/03/15 01:53:28;;;;;;;;;;;6.70;99.90;;;5.64;73.23;96581.72;10488551;28;2302;-73
2022/03/15 01:58:31;;;;;;;;;;;6.60;99.90;;;5.58;73.92;96579.94;10501415;28;1974;-72
2022/03/15 02:03:34;;;;;;;;;;;6.80;99.90;;;5.50;74.76;96574.91;10509495;28;1785;-72
2022/03/15 02:08:37;;;;;;;;;;;6.60;99.90;;;5.52;75.37;96562.97;10501313;28;1845;-73
2022/03/15 02:13:41;;;;;;;;;;;6.60;99.90;;;5.37;75.86;96539.34;10502245;28;1894;-72
2022/03/15 02:18:43;;;;;;;;;;;6.50;99.90;;;5.30;76.26;96551.94;10510603;28;1932;-71
2022/03/15 02:23:47;;;;;;;;;;;6.30;99.90;;;5.29;77.13;96550.31;10512108;22;2315;-68
2022/03/15 02:28:50;;;;;;;;;;;6.20;99.90;;;5.32;76.90;96536.50;10520668;28;1818;-68
2022/03/15 02:33:53;;;;;;;;;;;6.30;99.90;;;5.31;77.04;96532.22;10520783;28;2190;-69
2022/03/15 02:38:56;;;;;;;;;;;6.30;99.90;;;5.13;78.60;96534.88;10503015;28;1986;-70
2022/03/15 02:44:00;;;;;;;;;;;6.20;99.90;;;5.16;78.03;96542.44;10549871;28;1894;-70
2022/03/15 02:49:03;;;;;;;;;;;6.20;99.90;;;5.17;78.16;96538.75;10539040;28;2001;-69
2022/03/15 02:54:08;;;;;;;;;;;6.30;99.90;;;5.25;78.06;96541.09;10511171;28;1954;-70
2022/03/15 02:59:12;;;;;;;;;;;6.30;99.90;;;5.34;77.63;96518.47;10509687;28;2290;-71
2022/03/15 03:04:15;;;;;;;;;;;6.30;99.90;;;5.37;77.49;96523.34;10512396;28;2029;-69
2022/03/15 03:09:18;;;;;;;;;;;6.30;99.90;;;5.37;77.08;96517.19;10511393;28;2037;-69
2022/03/15 03:14:21;;;;;;;;;;;6.40;99.90;;;5.40;76.94;96516.75;10511378;28;2025;-69
2022/03/15 03:19:24;;;;;;;;;;;6.40;99.90;;;5.41;76.56;96508.53;10518400;28;1962;-70
2022/03/15 03:24:27;;;;;;;;;;;6.40;99.90;;;5.38;76.44;96508.97;10517236;28;1950;-71
2022/03/15 03:29:32;;;;;;;;;;;6.40;99.90;;;5.35;76.38;96511.28;10547117;28;1990;-70
2022/03/15 03:34:35;;;;;;;;;;;6.40;99.90;;;5.41;76.71;96505.88;10523759;28;2065;-70
2022/03/15 03:39:38;;;;;;;;;;;6.40;99.90;;;5.37;76.59;96507.34;10514129;28;1897;-69
2022/03/15 03:44:42;;;;;;;;;;;6.40;99.90;;;5.38;76.61;96498.31;10516659;28;1886;-69
2022/03/15 03:49:45;;;;;;;;;;;6.40;99.90;;;5.31;76.89;96499.41;10492131;28;1996;-69
2022/03/15 03:54:48;;;;;;;;;;;6.40;99.90;;;5.20;77.77;96503.63;10511457;28;1909;-68
2022/03/15 03:59:51;;;;;;;;;;;6.20;99.90;;;5.19;78.42;96499.34;10511643;28;1917;-69
2022/03/15 04:04:55;;;;;;;;;;;6.30;99.90;;;5.13;78.95;96498.38;10510773;28;1915;-70
2022/03/15 04:09:58;;;;;;;;;;;6.20;99.90;;;5.14;78.72;96500.00;10510860;28;1973;-70
2022/03/15 04:15:02;;;;;;;;;;;6.20;99.90;;;5.04;78.93;96501.56;10522433;28;1808;-68
2022/03/15 04:20:06;;;;;;;;;;;6.20;99.90;;;5.08;79.10;96518.72;10506193;28;1926;-68
2022/03/15 04:25:10;;;;;;;;;;;6.10;99.90;;;5.10;79.22;96500.69;10500459;28;2425;-70
2022/03/15 04:30:14;;;;;;;;;;;6.10;99.90;;;5.22;78.41;96503.44;10520167;28;1918;-69
2022/03/15 04:35:17;;;;;;;;;;;6.30;99.90;;;5.14;78.68;96504.50;10506238;28;1961;-70
2022/03/15 04:40:20;;;;;;;;;;;6.30;99.90;;;5.06;79.40;96512.81;10503959;28;1953;-68
2022/03/15 04:45:24;;;;;;;;;;;6.60;99.90;;;5.06;78.71;96518.13;10516868;28;1979;-68
2022/03/15 04:50:27;;;;;;;;;;;6.10;99.90;;;5.03;79.77;96514.06;10498970;28;1939;-69
2022/03/15 04:55:31;;;;;;;;;;;6.10;99.90;;;4.93;79.93;96511.09;10503485;28;1930;-69
2022/03/15 05:00:33;;;;;;;;;;;6.00;99.90;;;4.76;80.29;96521.47;10514764;28;2047;-69
2022/03/15 05:05:36;;;;;;;;;;;5.80;99.90;;;4.66;80.56;96520.38;10496445;28;1889;-70
2022/03/15 05:16:00;;;;;;;;;;;5.60;99.90;;;4.54;81.78;96515.72;10517438;28;1886;-72
2022/03/15 05:21:03;;;;;;;;;;;5.50;99.90;;;4.51;82.34;96507.34;10530037;28;1944;-71
2022/03/15 05:26:06;;;;;;;;;;;5.50;99.90;;;4.54;82.38;96512.25;10515811;28;1887;-70
2022/03/15 05:31:09;;;;;;;;;;;5.50;99.90;;;4.49;82.94;96514.75;10508297;28;2159;-70
2022/03/15 05:36:12;;;;;;;;;;;5.40;99.90;;;4.52;83.35;96507.16;10522687;28;1930;-68
2022/03/15 05:41:16;;;;;;;;;;;5.40;99.90;;;4.48;82.99;96505.94;10505384;28;2173;-70
2022/03/15 05:46:34;;;;;;;;;;;5.40;99.90;;;4.54;83.10;96518.41;10522965;28;2115;-70
2022/03/15 05:51:38;;;;;;;;;;;5.50;99.90;;;4.54;82.55;96528.22;10517554;28;2124;-68
2022/03/15 05:56:41;;;;;;;;;;;5.40;99.90;;;4.70;82.45;96543.66;10499556;28;1975;-68
2022/03/15 06:01:44;;;;;;;;;;;5.50;99.90;;;4.96;81.74;96520.47;10520924;28;1977;-70
2022/03/15 06:06:47;;;;;;;;;;;5.70;99.90;;;5.13;80.11;96525.03;10494844;28;1999;-70
2022/03/15 06:11:51;;;;;;;;;;;6.00;99.90;;;5.31;79.71;96524.22;10518760;28;1965;-70
2022/03/15 06:16:54;;;;;;;;;;;6.10;99.90;;;5.58;78.72;96518.59;10516152;28;1961;-70
2022/03/15 06:21:57;;;;;;;;;;;6.10;99.90;;;5.59;78.47;96515.69;10495659;28;1926;-69
2022/03/15 06:27:00;;;;;;;;;;;6.30;99.90;;;5.70;77.12;96522.94;10508746;28;2022;-69
2022/03/15 06:32:03;;;;;;;;;;;6.40;99.90;;;5.49;77.28;96525.28;10515847;28;1926;-69
2022/03/15 06:37:24;;;;;;;;;;;6.40;99.90;;;5.57;76.92;96522.28;10511806;28;1989;-69
2022/03/15 06:42:28;;;;;;;;;;;6.20;99.90;;;5.65;75.50;96508.66;10519699;28;1739;-70
2022/03/15 06:47:31;;;;;;;;;;;6.40;99.90;;;5.59;76.10;96523.69;10525517;28;1824;-69
2022/03/15 06:52:34;;;;;;;;;;;6.40;99.90;;;5.81;75.46;96518.72;10511818;28;1780;-69
2022/03/15 06:57:37;;;;;;;;;;;6.50;99.90;;;6.28;74.44;96518.09;10501717;28;1910;-70
2022/03/15 07:02:40;;;;;;;;;;;6.70;99.90;;;6.76;71.71;96508.09;10488982;28;1819;-71
2022/03/15 07:07:43;;;;;;;;;;;7.10;99.90;;;6.91;70.18;96512.16;10512989;28;1811;-71
2022/03/15 07:12:47;;;;;;;;;;;7.40;99.90;;;6.41;71.60;96508.03;10515752;28;1811;-71
2022/03/15 07:17:51;;;;;;;;;;;7.40;99.90;;;6.69;70.73;96503.91;10491136;28;2024;-71
2022/03/15 07:22:54;;;;;;;;;;;7.40;99.90;;;7.17;68.45;96503.66;10515764;28;1765;-71
2022/03/15 07:27:58;;;;;;;;;;;7.60;99.90;;;7.86;66.31;96525.16;10498816;28;1883;-70
2022/03/15 07:33:01;;;;;;;;;;;8.00;99.90;;;8.10;65.34;96526.72;10509164;28;1790;-70
2022/03/15 07:38:04;;;;;;;;;;;8.50;99.90;;;8.58;62.66;96544.19;10511920;28;1972;-72
2022/03/15 07:43:08;;;;;;;;;;;9.00;99.90;;;8.61;61.91;96559.81;10524229;28;1859;-71
2022/03/15 07:48:11;;;;;;;;;;;9.10;99.90;;;8.46;62.48;96546.16;10498021;28;1859;-72
2022/03/15 07:53:14;;;;;;;;;;;9.20;99.90;;;8.20;61.96;96541.31;10522243;28;1847;-72
2022/03/15 07:58:17;;;;;;;;;;;9.10;99.90;;;8.22;62.44;96541.91;10512537;28;1981;-71
2022/03/15 08:03:22;;;;;;;;;;;9.00;99.90;;;8.58;61.94;96529.97;10499068;28;1771;-73
2022/03/15 08:08:25;;;;;;;;;;;9.00;99.90;;;8.60;61.31;96526.03;10500565;28;2061;-71
2022/03/15 08:13:29;;;;;;;;;;;9.10;99.90;;;8.74;61.90;96526.50;10517344;28;1752;-69
2022/03/15 08:18:32;;;;;;;;;;;9.30;99.90;;;8.89;60.67;96528.63;10510344;28;1913;-71
2022/03/15 08:23:35;;;;;;;;;;;9.50;99.90;;;9.07;59.93;96514.16;10517079;22;1820;-73
2022/03/15 08:28:38;;;;;;;;;;;9.70;99.90;;;9.31;59.44;96509.41;10466688;28;2326;-70
2022/03/15 08:33:42;;;;;;;;;;;9.90;99.90;;;9.50;57.84;96504.56;10472733;28;1817;-69
2022/03/15 08:38:45;;;;;;;;;;;10.00;99.90;;;9.64;57.10;96498.56;10456656;28;1910;-69
2022/03/15 08:43:48;;;;;;;;;;;10.20;99.90;;;9.81;56.29;96498.50;10450589;28;2025;-68
2022/03/15 08:48:53;;;;;;;;;;;10.40;99.90;;;9.63;55.98;96506.88;10476717;28;1851;-69
2022/03/15 08:53:57;;;;;;;;;;;10.50;99.90;;;9.70;56.88;96505.63;10468700;28;1820;-69
2022/03/15 08:59:01;;;;;;;;;;;10.40;99.90;;;9.92;55.54;96510.16;10451743;28;1975;-70
2022/03/15 09:04:04;;;;;;;;;;;10.50;99.90;;;10.02;55.14;96496.84;10471278;28;2267;-70
2022/03/15 09:09:07;;;;;;;;;;;10.60;99.90;;;10.11;54.53;96487.28;10457329;28;1853;-69
2022/03/15 09:14:10;;;;;;;;;;;10.60;99.90;;;10.20;54.10;96491.13;10454956;28;1860;-70
2022/03/15 09:19:15;;;;;;;;;;;10.80;99.90;;;10.50;52.44;96468.34;10472938;28;1934;-70
2022/03/15 09:24:18;;;;;;;;;;;11.20;99.90;;;10.63;52.00;96457.16;10460256;28;1858;-71
2022/03/15 09:29:21;;;;;;;;;;;11.30;99.90;;;10.53;52.28;96440.94;10462874;28;1757;-70
2022/03/15 09:34:25;;;;;;;;;;;11.30;99.90;;;10.81;51.18;96456.75;10458149;28;1843;-70
2022/03/15 09:39:28;;;;;;;;;;;11.50;99.90;;;10.80;51.25;96457.00;10462930;28;1985;-73
2022/03/15 09:44:32;;;;;;;;;;;11.50;99.90;;;11.22;50.50;96451.63;10471386;28;1868;-71
2022/03/15 09:49:36;;;;;;;;;;;;;;;11.81;49.04;96445.97;10454690;28;2324;-70
2022/03/15 09:54:40;;;;;;;;;;;12.20;99.90;;;12.66;46.93;96440.16;10446982;28;1904;-71
2022/03/15 09:59:43;;;;;;;;;;;12.90;99.90;;;12.64;46.33;96453.94;10475905;28;1973;-70
2022/03/15 10:04:47;;;;;;;;;;;13.20;98.20;;;12.96;44.96;96442.03;10452998;28;1824;-68
2022/03/15 10:09:51;;;;;;;;;;;13.30;98.00;;;12.77;46.17;96443.69;10450215;28;1867;-69
2022/03/15 10:14:56;;;;;;;;;;;13.30;98.00;;;12.53;46.59;96433.44;10458106;28;1773;-70
2022/03/15 10:20:01;;;;;;;;;;;13.10;98.00;;;12.35;47.45;96447.47;10455749;28;1906;-71
2022/03/15 10:25:03;;;;;;;;;;;13.10;98.50;;;12.67;47.10;96431.03;10463579;28;1944;-69
2022/03/15 10:30:08;;;;;;;;;;;13.30;98.60;;;12.56;47.93;96413.22;10456593;28;1785;-70
2022/03/15 10:35:11;;;;;;;;;;;13.30;98.60;;;12.58;48.20;96408.34;10449812;28;1890;-70
2022/03/15 10:40:14;;;;;;;;;;;13.40;98.70;;;12.61;48.44;96399.75;10451231;28;1917;-71
2022/03/15 10:45:16;;;;;;;;;;;13.20;99.20;;;12.73;48.46;96413.75;10455515;28;1789;-73
2022/03/15 10:50:22;;;;;;;;;;;13.20;99.50;;;12.95;48.23;96410.75;10471618;28;1804;-72
2022/03/15 10:55:26;;;;;;;;;;;13.80;99.90;;;13.70;46.54;96405.41;10453586;28;1880;-71
2022/03/15 11:00:29;;;;;;;;;;;;;;;13.52;45.91;96388.72;10451565;28;1979;-71
2022/03/15 11:05:33;;;;;;;;;;;14.20;98.00;;;12.96;47.66;96393.47;10472038;28;1867;-73
2022/03/15 11:10:36;;;;;;;;;;;13.90;98.00;;;13.29;47.50;96377.75;10446936;28;1835;-73
2022/03/15 11:15:40;;;;;;;;;;;13.90;99.00;;;13.50;46.89;96369.28;10449463;28;1556;-73
2022/03/15 11:20:43;;;;;;;;;;;14.20;98.40;;;13.40;47.30;96353.13;10471205;28;1914;-71
2022/03/15 11:25:53;;;;;;;;;;;14.30;98.50;;;13.68;46.75;96351.66;10456344;28;1841;-74
2022/03/15 11:30:56;;;;;;;;;;;14.40;98.30;;;13.83;46.68;96377.75;10461453;28;1972;-72
2022/03/15 11:35:59;;;;;;;;;;;14.70;99.30;;;14.24;46.87;96355.84;10449250;28;1818;-71
2022/03/15 11:41:02;;;;;;;;;;;14.70;99.30;;;13.95;47.55;96347.69;10468783;28;1922;-72
2022/03/15 11:46:06;;;;;;;;;;;14.70;99.00;;;13.68;47.30;96338.16;10468891;28;1805;-74
2022/03/15 11:51:09;;;;;;;;;;;14.50;98.60;;;13.94;46.95;96321.75;10449494;28;1862;-72
2022/03/15 11:56:13;;;;;;;;;;;14.40;98.90;;;13.76;47.32;96331.34;10483099;28;1776;-72
2022/03/15 12:01:17;;;;;;;;;;;14.60;98.70;;;13.53;49.17;96317.41;10481931;28;1906;-72
2022/03/15 12:06:20;;;;;;;;;;;14.50;99.70;;;13.85;48.27;96302.63;10469446;28;2023;-74
2022/03/15 12:11:24;;;;;;;;;;;14.50;99.90;;;13.61;49.88;96288.19;10473008;28;1696;-73
2022/03/15 12:16:27;;;;;;;;;;;14.40;99.90;;;13.60;52.31;96281.19;10503916;28;2292;-71
2022/03/15 12:21:31;;;;;;;;;;;14.40;99.90;;;13.61;49.99;96280.88;10475919;28;1966;-71
2022/03/15 12:26:35;;;;;;;;;;;14.60;99.90;;;13.49;50.90;96270.47;10493262;28;2089;-72
2022/03/15 12:31:38;;;;;;;;;;;14.40;99.90;;;13.74;48.57;96271.34;10495346;28;1987;-74
2022/03/15 12:36:41;;;;;;;;;;;14.40;99.90;;;13.83;47.75;96263.47;10486353;28;1879;-73
2022/03/15 12:41:44;;;;;;;;;;;14.50;99.60;;;13.57;50.95;96255.53;10460156;28;1981;-72
2022/03/15 12:46:47;;;;;;;;;;;14.50;99.90;;;12.88;59.74;96249.13;10479111;28;1836;-72
2022/03/15 12:51:53;;;;;;;;;;;14.20;99.90;;;12.33;56.29;96242.81;10470651;28;1840;-72
2022/03/15 12:56:58;;;;;;;;;;;13.70;99.90;;;12.02;57.24;96235.88;10467572;28;1847;-73
2022/03/15 13:02:01;;;;;;;;;;;13.30;99.90;;;12.01;57.18;96231.56;10480076;28;1979;-73
2022/03/15 13:07:05;;;;;;;;;;;13.00;99.90;;;12.13;56.32;96215.91;10491803;28;1896;-72
2022/03/15 13:12:08;;;;;;;;;;;13.10;99.90;;;12.16;55.68;96207.31;10462808;28;1991;-72
2022/03/15 13:17:11;;;;;;;;;;;13.10;99.90;;;12.01;58.19;96196.53;10476696;28;2082;-72
2022/03/15 13:22:14;;;;;;;;;;;13.10;99.90;;;11.63;61.46;96202.19;10456986;28;1997;-71
2022/03/15 13:27:17;;;;;;;;;;;12.90;99.90;;;11.42;64.49;96199.78;10480393;28;1836;-72
2022/03/15 13:32:24;;;;;;;;;;;12.60;99.90;;;11.39;62.97;96195.75;10477363;28;1897;-72
2022/03/15 13:37:27;;;;;;;;;;;12.50;99.90;;;11.42;63.56;96183.63;10450859;28;1971;-70
2022/03/15 13:42:30;;;;;;;;;;;12.50;99.90;;;11.18;66.25;96176.06;10452114;28;1926;-72
2022/03/15 13:47:33;;;;;;;;;;;12.30;99.90;;;10.90;68.81;96169.28;10471240;28;1861;-71
2022/03/15 13:52:38;;;;;;;;;;;12.10;99.90;;;10.68;72.91;96153.34;10475372;28;1777;-71
2022/03/15 13:57:42;;;;;;;;;;;11.90;99.90;;;10.52;74.02;96155.19;10473436;28;2026;-71
2022/03/15 14:02:46;;;;;;;;;;;11.80;99.90;;;10.44;73.41;96154.91;10460241;28;1906;-72
2022/03/15 14:07:49;;;;;;;;;;;11.60;99.90;;;10.22;75.90;96149.66;10454238;28;1836;-72
2022/03/15 14:12:53;;;;;;;;;;;11.40;99.90;;;10.07;79.64;96147.72;10469031;28;1703;-72
2022/03/15 14:17:57;;;;;;;;;;;11.30;99.90;;;9.91;83.93;96159.44;10443401;28;2389;-73
2022/03/15 14:23:00;;;;;;;;;;;11.10;99.90;;;9.66;84.08;96157.41;10461380;28;2004;-72
2022/03/15 14:28:03;;;;;;;;;;;10.90;99.90;;;9.43;90.64;96147.84;10500897;22;2319;-71
2022/03/15 14:33:06;;;;;;;;;;;10.70;99.90;;;9.18;93.95;96148.44;10527127;28;2014;-71
2022/03/15 14:38:10;;;;;;;;;;;10.40;99.90;;;9.07;97.27;96144.06;10524121;28;1914;-71
2022/03/15 14:43:14;;;;;;;;;;;10.30;99.90;;;8.98;100.00;96135.69;10508858;28;1845;-72
2022/03/15 14:48:18;;;;;;;;;;;10.10;99.90;;;8.87;100.00;96144.69;10511875;28;1815;-71
2022/03/15 14:53:21;;;;;;;;;;;10.00;99.90;;;8.87;100.00;96150.84;10522488;28;2322;-71
2022/03/15 14:58:26;;;;;;;;;;;9.90;99.90;;;8.86;100.00;96132.34;10520290;28;1983;-71
2022/03/15 15:03:30;;;;;;;;;;;9.90;99.90;;;8.80;100.00;96117.28;10518111;28;2000;-72
2022/03/15 15:08:35;;;;;;;;;;;9.80;99.90;;;8.81;100.00;96118.88;10518236;28;2376;-72
2022/03/15 15:13:39;;;;;;;;;;;9.80;99.90;;;8.73;100.00;96100.59;10515884;28;1825;-72
2022/03/15 15:18:47;;;;;;;;;;;9.80;99.90;;;8.58;100.00;96067.19;10513313;28;1973;-71
2022/03/15 15:23:51;;;;;;;;;;;9.60;99.90;;;8.46;100.00;96061.22;10516698;28;1982;-72
2022/03/15 15:28:55;;;;;;;;;;;9.50;99.90;;;8.41;100.00;96061.16;10523335;28;1847;-69
2022/03/15 15:33:58;;;;;;;;;;;9.50;99.90;;;8.36;100.00;96042.34;10525722;28;1796;-68
2022/03/15 15:39:03;;;;;;;;;;;9.40;99.90;;;8.37;100.00;96022.53;10515942;28;2003;-69
2022/03/15 15:44:08;;;;;;;;;;;9.50;99.90;;;8.29;100.00;96015.75;10511928;28;1784;-69
2022/03/15 15:49:14;;;;;;;;;;;9.40;99.90;;;8.29;100.00;96001.53;10512715;28;1835;-70
2022/03/15 15:54:18;;;;;;;;;;;9.50;99.90;;;8.36;100.00;95986.91;10513144;28;1815;-70
2022/03/15 15:59:20;;;;;;;;;;;9.40;99.90;;;8.42;100.00;95981.59;10509914;28;1980;-70
2022/03/15 16:04:23;;;;;;;;;;;9.50;99.90;;;8.44;100.00;95966.06;10511728;28;1950;-70
2022/03/15 16:09:26;;;;;;;;;;;9.60;99.90;;;8.42;100.00;95944.91;10512334;28;1824;-69
2022/03/15 16:14:30;;;;;;;;;;;9.60;99.90;;;8.48;100.00;95927.81;10511208;28;1888;-70
2022/03/15 16:19:54;;;;;;;;;;;9.60;99.90;;;8.50;100.00;95917.63;10527268;28;1985;-70
2022/03/15 16:24:56;;;;;;;;;;;9.60;99.90;;;8.50;100.00;95909.59;10520308;28;1882;-73
2022/03/15 16:29:59;;;;;;;;;;;9.60;99.90;;;8.59;100.00;95897.34;10518510;28;2002;-69
2022/03/15 16:35:03;;;;;;;;;;;9.60;99.90;;;8.66;100.00;95895.25;10516071;28;1871;-70
2022/03/15 16:40:27;;;;;;;;;;;9.70;99.90;;;8.75;100.00;95889.41;10518045;28;1918;-70
2022/03/15 16:45:33;;;;;;;;;;;9.80;99.90;;;8.78;100.00;95884.34;10523267;28;1804;-70
2022/03/15 16:50:38;;;;;;;;;;;9.90;99.90;;;8.81;100.00;95889.16;10518220;28;1850;-70
2022/03/15 16:55:46;;;;;;;;;;;10.00;99.90;;;8.91;100.00;95888.44;10522985;28;1863;-69
2022/03/15 17:00:49;;;;;;;;;;;10.00;99.90;;;8.98;100.00;95882.84;10525311;28;1913;-69
2022/03/15 17:05:53;;;;;;;;;;;10.00;99.90;;;8.99;100.00;95890.63;10515276;28;1815;-69
2022/03/15 17:10:57;;;;;;;;;;;10.00;99.90;;;9.03;100.00;95897.06;10513292;28;1860;-70
2022/03/15 17:16:00;;;;;;;;;;;10.10;99.90;;;9.02;100.00;95900.81;10519855;28;1930;-68
2022/03/15 17:21:10;;;;;;;;;;;10.10;99.90;;;9.00;100.00;95892.22;10506628;28;1921;-69
2022/03/15 17:26:14;;;;;;;;;;;10.00;99.90;;;9.03;100.00;95904.28;10518109;28;1854;-71
2022/03/15 17:31:17;;;;;;;;;;;10.00;99.90;;;9.02;100.00;95908.03;10509191;28;1449;-70
2022/03/15 17:36:22;;;;;;;;;;;9.90;99.90;;;9.06;100.00;95912.63;10528186;28;1704;-70
2022/03/15 17:41:29;;;;;;;;;;;9.90;99.90;;;9.06;100.00;95923.34;10540378;28;1886;-71
2022/03/15 17:46:32;;;;;;;;;;;10.00;99.90;;;9.11;100.00;95931.44;10530002;28;1835;-70
2022/03/15 17:51:36;;;;;;;;;;;9.90;99.90;;;9.00;100.00;95945.84;10517297;28;1907;-70
2022/03/15 17:56:42;;;;;;;;;;;10.00;99.90;;;9.00;100.00;95919.03;10516910;28;1818;-68
2022/03/15 18:01:46;;;;;;;;;;;9.90;99.90;;;9.06;100.00;95939.44;10515325;28;2260;-71
2022/03/15 18:06:51;;;;;;;;;;;9.90;99.90;;;9.10;100.00;95951.28;10512966;28;1791;-71
2022/03/15 18:11:54;;;;;;;;;;;10.00;99.90;;;8.91;100.00;95958.13;10512563;28;1759;-71
2022/03/15 18:16:58;;;;;;;;;;;9.90;99.90;;;8.75;100.00;95975.97;10509695;28;1551;-71
2022/03/15 18:22:01;;;;;;;;;;;9.80;99.90;;;8.65;100.00;95966.00;10513833;28;1975;-71
2022/03/15 18:27:04;;;;;;;;;;;9.70;99.90;;;8.55;100.00;95965.91;10513343;28;1591;-70
2022/03/15 18:32:07;;;;;;;;;;;9.90;99.90;;;8.57;100.00;95963.75;10514697;28;2149;-69
2022/03/15 18:37:21;;;;;;;;;;;9.50;99.90;;;8.60;100.00;95995.44;10516490;28;1496;-69
2022/03/15 18:42:26;;;;;;;;;;;9.50;99.90;;;8.62;100.00;95998.66;10516758;28;1918;-70
2022/03/15 18:47:29;;;;;;;;;;;9.50;99.90;;;8.69;100.00;96003.00;10510146;28;1574;-70
2022/03/15 18:52:32;;;;;;;;;;;9.60;99.90;;;8.64;100.00;95999.19;10513899;28;1541;-70
2022/03/15 18:57:35;;;;;;;;;;;9.60;99.90;;;8.63;100.00;96016.34;10505817;28;1857;-72
2022/03/15 19:02:39;;;;;;;;;;;9.70;99.90;;;8.63;100.00;96019.03;10498828;28;1917;-70
2022/03/15 19:07:43;;;;;;;;;;;9.60;99.90;;;8.56;100.00;96031.81;10515887;28;1792;-71
2022/03/15 19:12:48;;;;;;;;;;;9.60;99.90;;;8.51;100.00;96026.41;10506762;28;1832;-70
2022/03/15 19:17:51;;;;;;;;;;;9.50;99.90;;;8.48;100.00;96037.66;10530993;28;1862;-71
2022/03/15 19:22:54;;;;;;;;;;;9.40;99.90;;;8.39;100.00;96036.47;10535866;28;1947;-71
2022/03/15 19:27:57;;;;;;;;;;;9.40;99.90;;;8.40;100.00;96040.78;10552820;28;1758;-69
2022/03/15 19:33:01;;;;;;;;;;;9.40;99.90;;;8.24;100.00;96049.69;10555881;28;1767;-71
2022/03/15 19:38:04;;;;;;;;;;;9.30;99.90;;;8.09;100.00;96053.81;10527956;28;1820;-72
2022/03/15 19:43:07;;;;;;;;;;;9.00;99.90;;;7.98;100.00;96060.13;10511103;28;2046;-70
2022/03/15 19:48:15;;;;;;;;;;;9.00;99.90;;;7.97;100.00;96066.53;10515669;28;1874;-73
2022/03/15 19:53:18;;;;;;;;;;;8.80;99.90;;;7.97;100.00;96079.13;10515126;28;1845;-71
2022/03/15 19:58:21;;;;;;;;;;;8.80;99.90;;;7.94;100.00;96092.97;10515284;28;1649;-71
2022/03/15 20:03:31;;;;;;;;;;;8.80;99.90;;;7.89;100.00;96096.41;10514932;28;1887;-72
2022/03/15 20:08:38;;;;;;;;;;;8.80;99.90;;;7.78;100.00;96094.66;10510869;28;1470;-70
2022/03/15 20:13:42;;;;;;;;;;;8.70;99.90;;;7.69;100.00;96098.81;10513945;28;1599;-71
2022/03/15 20:18:46;;;;;;;;;;;8.60;99.90;;;7.58;100.00;96082.63;10509713;28;1865;-71
2022/03/15 20:23:53;;;;;;;;;;;8.60;99.90;;;7.62;100.00;96106.19;10513112;28;1918;-70
2022/03/15 20:28:59;;;;;;;;;;;8.50;99.90;;;7.59;100.00;96112.88;10540093;22;2476;-78
2022/03/15 20:39:39;;;;;;;;;;;8.40;99.90;;;7.50;100.00;96120.47;10557396;28;1563;-80
2022/03/15 20:45:02;;;;;;;;;;;8.40;99.90;;;7.49;100.00;96123.41;10560837;28;1464;-78
2022/03/15 20:50:44;;;;;;;;;;;8.30;99.90;;;7.43;100.00;96119.84;10562418;28;1795;-80
2022/03/15 21:01:14;;;;;;;;;;;8.20;99.90;;;7.45;100.00;96139.16;10578924;28;1887;-80
2022/03/15 21:06:18;;;;;;;;;;;8.30;99.90;;;7.37;100.00;96131.53;10586095;22;3754;-76
2022/03/15 21:11:22;;;;;;;;;;;8.30;99.90;;;7.42;100.00;96139.63;10482652;28;1430;-77
2022/03/15 21:16:34;;;;;;;;;;;8.30;99.90;;;7.40;100.00;96154.31;10487023;28;1592;-75
2022/03/15 21:21:37;;;;;;;;;;;8.30;99.90;;;7.36;100.00;96153.97;10434099;28;1918;-74
2022/03/15 21:26:40;;;;;;;;;;;8.20;99.90;;;7.37;100.00;96155.59;10454283;28;1980;-76
2022/03/15 21:31:43;;;;;;;;;;;8.20;99.90;;;7.36;100.00;96151.31;10446024;28;1827;-75
2022/03/15 21:36:46;;;;;;;;;;;8.20;99.90;;;7.36;100.00;96155.84;10447418;28;1917;-76
2022/03/15 21:41:49;;;;;;;;;;;8.20;99.90;;;7.39;100.00;96163.41;10440549;28;1984;-76
2022/03/15 21:46:52;;;;;;;;;;;8.20;99.90;;;7.35;100.00;96157.72;10462151;28;1861;-76
2022/03/15 21:51:55;;;;;;;;;;;8.10;99.90;;;7.40;100.00;96152.44;10457296;28;1885;-76
2022/03/15 21:56:59;;;;;;;;;;;8.20;99.90;;;7.45;100.00;96154.41;10432756;28;1893;-75
2022/03/15 22:02:02;;;;;;;;;;;8.20;99.90;;;7.44;100.00;96150.88;10461448;28;1961;-75
2022/03/15 22:07:05;;;;;;;;;;;8.30;99.90;;;7.48;100.00;96154.69;10469040;28;1830;-77
2022/03/15 22:12:09;;;;;;;;;;;8.40;99.90;;;7.53;100.00;96145.94;10472819;28;1895;-74
2022/03/15 22:17:13;;;;;;;;;;;8.40;99.90;;;7.58;100.00;96148.72;10456206;28;1799;-77
2022/03/15 22:22:16;;;;;;;;;;;8.40;99.90;;;7.59;100.00;96144.97;10437076;28;1977;-77
2022/03/15 22:27:19;;;;;;;;;;;8.50;99.90;;;7.68;100.00;96148.84;10430853;28;1822;-76
2022/03/15 23:25:30;;;;;;;;;;;9.00;99.90;;;8.00;100.00;96162.41;10433270;28;1802;-76
2022/03/15 23:30:33;;;;;;;;;;;9.00;99.90;;;8.05;100.00;96161.66;10441815;28;1878;-77
2022/03/15 23:35:36;;;;;;;;;;;9.00;99.90;;;7.98;100.00;96159.16;10445340;28;1983;-76
2022/03/15 23:40:39;;;;;;;;;;;8.90;99.90;;;7.78;100.00;96165.06;10424844;28;1973;-75
2022/03/15 23:45:42;;;;;;;;;;;8.80;99.90;;;7.82;100.00;96174.22;10437742;28;1876;-75
2022/03/15 23:50:45;;;;;;;;;;;8.70;99.90;;;7.75;100.00;96186.13;10436097;28;1859;-76
2022/03/15 23:55:48;;;;;;;;;;;8.70;99.90;;;7.55;100.00;96192.78;10429530;28;1888;-76
